sensor_id;sensor_type;location;lat;lon;timestamp;temperature;humidity
60860;DHT22;46694;54.382;9.708;2022-12-18T00:00:43;-3.40;99.90
60860;DHT22;46694;54.382;9.708;2022-12-18T00:03:23;-3.40;99.90
60860;DHT22;46694;54.382;9.708;2022-12-18T00:06:02;-3.40;99.90
60860;DHT22;46694;54.382;9.708;2022-12-18T00:08:43;-3.40;99.90
60860;DHT22;46694;54.382;9.708;2022-12-18T00:11:26;-3.40;99.90
60860;DHT22;46694;54.382;9.708;2022-12-18T00:14:10;-3.40;99.90
60860;DHT22;46694;54.382;9.708;2022-12-18T00:16:50;-3.40;99.90
60860;DHT22;46694;54.382;9.708;2022-12-18T00:19:30;-3.40;99.90
60860;DHT22;46694;54.382;9.708;2022-12-18T00:22:11;-3.40;99.90
60860;DHT22;46694;54.382;9.708;2022-12-18T00:24:50;-3.40;99.90
60860;DHT22;46694;54.382;9.708;2022-12-18T00:27:30;-3.40;99.90
60860;DHT22;46694;54.382;9.708;2022-12-18T00:30:10;-3.50;99.90
60860;DHT22;46694;54.382;9.708;2022-12-18T00:32:49;-3.40;99.90
60860;DHT22;46694;54.382;9.708;2022-12-18T00:35:29;-3.50;99.90
60860;DHT22;46694;54.382;9.708;2022-12-18T00:38:09;-3.50;99.90
60860;DHT22;46694;54.382;9.708;2022-12-18T00:40:48;-3.50;99.90
60860;DHT22;46694;54.382;9.708;2022-12-18T00:43:28;-3.50;99.90
60860;DHT22;46694;54.382;9.708;2022-12-18T00:46:07;-3.50;99.90
60860;DHT22;46694;54.382;9.708;2022-12-18T00:48:47;-3.50;99.90
60860;DHT22;46694;54.382;9.708;2022-12-18T00:51:26;-3.50;99.90
60860;DHT22;46694;54.382;9.708;2022-12-18T00:54:06;-3.50;99.90
60860;DHT22;46694;54.382;9.708;2022-12-18T00:56:45;-3.50;99.90
60860;DHT22;46694;54.382;9.708;2022-12-18T00:59:25;-3.40;99.90
60860;DHT22;46694;54.382;9.708;2022-12-18T01:02:05;-3.50;99.90
60860;DHT22;46694;54.382;9.708;2022-12-18T01:04:44;-3.40;99.90
60860;DHT22;46694;54.382;9.708;2022-12-18T01:07:23;-3.40;99.90
60860;DHT22;46694;54.382;9.708;2022-12-18T01:10:04;-3.40;99.90
60860;DHT22;46694;54.382;9.708;2022-12-18T01:12:45;-3.40;99.90
60860;DHT22;46694;54.382;9.708;2022-12-18T01:15:24;-3.40;99.90
60860;DHT22;46694;54.382;9.708;2022-12-18T01:18:04;-3.40;99.90
60860;DHT22;46694;54.382;9.708;2022-12-18T01:20:43;-3.40;99.90
60860;DHT22;46694;54.382;9.708;2022-12-18T01:23:23;-3.40;99.90
60860;DHT22;46694;54.382;9.708;2022-12-18T01:26:13;-3.40;99.90
60860;DHT22;46694;54.382;9.708;2022-12-18T01:28:54;-3.30;99.90
60860;DHT22;46694;54.382;9.708;2022-12-18T01:31:34;-3.40;99.90
60860;DHT22;46694;54.382;9.708;2022-12-18T01:34:14;-3.40;99.90
60860;DHT22;46694;54.382;9.708;2022-12-18T01:36:53;-3.40;99.90
60860;DHT22;46694;54.382;9.708;2022-12-18T01:39:33;-3.40;99.90
60860;DHT22;46694;54.382;9.708;2022-12-18T01:42:15;-3.40;99.90
60860;DHT22;46694;54.382;9.708;2022-12-18T01:48:00;-3.40;99.90
60860;DHT22;46694;54.382;9.708;2022-12-18T01:50:43;-3.40;99.90
60860;DHT22;46694;54.382;9.708;2022-12-18T01:53:23;-3.40;99.90
60860;DHT22;46694;54.382;9.708;2022-12-18T01:56:03;-3.40;99.90
60860;DHT22;46694;54.382;9.708;2022-12-18T01:58:56;-3.40;99.90
60860;DHT22;46694;54.382;9.708;2022-12-18T02:01:48;-3.50;99.90
60860;DHT22;46694;54.382;9.708;2022-12-18T02:04:28;-3.50;99.90
60860;DHT22;46694;54.382;9.708;2022-12-18T02:07:30;-3.50;99.90
60860;DHT22;46694;54.382;9.708;2022-12-18T02:10:36;-3.40;99.90
60860;DHT22;46694;54.382;9.708;2022-12-18T02:13:55;-3.50;99.90
60860;DHT22;46694;54.382;9.708;2022-12-18T02:16:52;-3.50;99.90
60860;DHT22;46694;54.382;9.708;2022-12-18T02:28:46;-3.50;99.90
60860;DHT22;46694;54.382;9.708;2022-12-18T02:31:36;-3.50;99.90
60860;DHT22;46694;54.382;9.708;2022-12-18T02:34:20;-3.50;99.90
60860;DHT22;46694;54.382;9.708;2022-12-18T02:37:04;-3.40;99.90
60860;DHT22;46694;54.382;9.708;2022-12-18T02:39:49;-3.40;99.90
60860;DHT22;46694;54.382;9.708;2022-12-18T02:42:31;-3.40;99.90
60860;DHT22;46694;54.382;9.708;2022-12-18T02:45:11;-3.40;99.90
60860;DHT22;46694;54.382;9.708;2022-12-18T02:47:51;-3.50;99.90
60860;DHT22;46694;54.382;9.708;2022-12-18T02:50:44;-3.50;99.90
60860;DHT22;46694;54.382;9.708;2022-12-18T02:56:31;-3.50;99.90
60860;DHT22;46694;54.382;9.708;2022-12-18T02:59:21;-3.60;99.90
60860;DHT22;46694;54.382;9.708;2022-12-18T03:05:30;-3.60;99.90
60860;DHT22;46694;54.382;9.708;2022-12-18T03:08:28;-3.60;99.90
60860;DHT22;46694;54.382;9.708;2022-12-18T03:11:12;-3.60;99.90
60860;DHT22;46694;54.382;9.708;2022-12-18T03:13:55;-3.60;99.90
60860;DHT22;46694;54.382;9.708;2022-12-18T03:16:36;-3.60;99.90
60860;DHT22;46694;54.382;9.708;2022-12-18T03:19:20;-3.60;99.90
60860;DHT22;46694;54.382;9.708;2022-12-18T03:22:03;-3.60;99.90
60860;DHT22;46694;54.382;9.708;2022-12-18T03:24:46;-3.60;99.90
60860;DHT22;46694;54.382;9.708;2022-12-18T03:27:29;-3.60;99.90
60860;DHT22;46694;54.382;9.708;2022-12-18T03:30:12;-3.60;99.90
60860;DHT22;46694;54.382;9.708;2022-12-18T03:33:08;-3.60;99.90
60860;DHT22;46694;54.382;9.708;2022-12-18T03:35:54;-3.70;99.90
60860;DHT22;46694;54.382;9.708;2022-12-18T03:38:34;-3.70;99.90
60860;DHT22;46694;54.382;9.708;2022-12-18T03:47:26;-3.70;99.90
60860;DHT22;46694;54.382;9.708;2022-12-18T03:50:22;-3.70;99.90
60860;DHT22;46694;54.382;9.708;2022-12-18T03:56:10;-3.80;99.90
60860;DHT22;46694;54.382;9.708;2022-12-18T03:58:52;-3.80;99.90
60860;DHT22;46694;54.382;9.708;2022-12-18T04:01:41;-3.80;99.90
60860;DHT22;46694;54.382;9.708;2022-12-18T04:04:25;-3.80;99.90
60860;DHT22;46694;54.382;9.708;2022-12-18T04:07:06;-3.80;99.90
60860;DHT22;46694;54.382;9.708;2022-12-18T04:09:48;-3.80;99.90
60860;DHT22;46694;54.382;9.708;2022-12-18T04:12:29;-3.80;99.90
60860;DHT22;46694;54.382;9.708;2022-12-18T04:15:10;-3.80;99.90
60860;DHT22;46694;54.382;9.708;2022-12-18T04:17:50;-3.90;99.90
60860;DHT22;46694;54.382;9.708;2022-12-18T04:20:30;-3.80;99.90
60860;DHT22;46694;54.382;9.708;2022-12-18T04:23:09;-3.80;99.90
60860;DHT22;46694;54.382;9.708;2022-12-18T04:25:48;-3.80;99.90
60860;DHT22;46694;54.382;9.708;2022-12-18T04:28:28;-3.80;99.90
60860;DHT22;46694;54.382;9.708;2022-12-18T04:31:08;-3.80;99.90
60860;DHT22;46694;54.382;9.708;2022-12-18T04:33:47;-3.80;99.90
60860;DHT22;46694;54.382;9.708;2022-12-18T04:36:27;-3.80;99.90
60860;DHT22;46694;54.382;9.708;2022-12-18T04:39:07;-3.80;99.90
60860;DHT22;46694;54.382;9.708;2022-12-18T04:41:46;-3.80;99.90
60860;DHT22;46694;54.382;9.708;2022-12-18T04:44:26;-3.80;99.90
60860;DHT22;46694;54.382;9.708;2022-12-18T04:47:06;-3.80;99.90
60860;DHT22;46694;54.382;9.708;2022-12-18T04:49:46;-3.80;99.90
60860;DHT22;46694;54.382;9.708;2022-12-18T04:52:26;-3.80;99.90
60860;DHT22;46694;54.382;9.708;2022-12-18T04:55:06;-3.70;99.90
60860;DHT22;46694;54.382;9.708;2022-12-18T04:57:46;-3.70;99.90
60860;DHT22;46694;54.382;9.708;2022-12-18T05:00:25;-3.70;99.90
60860;DHT22;46694;54.382;9.708;2022-12-18T05:03:05;-3.70;99.90
60860;DHT22;46694;54.382;9.708;2022-12-18T05:05:44;-3.70;99.90
60860;DHT22;46694;54.382;9.708;2022-12-18T05:08:24;-3.70;99.90
60860;DHT22;46694;54.382;9.708;2022-12-18T05:11:09;-3.70;99.90
60860;DHT22;46694;54.382;9.708;2022-12-18T05:13:50;-3.70;99.90
60860;DHT22;46694;54.382;9.708;2022-12-18T05:16:30;-3.70;99.90
60860;DHT22;46694;54.382;9.708;2022-12-18T05:19:09;-3.70;99.90
60860;DHT22;46694;54.382;9.708;2022-12-18T05:21:49;-3.70;99.90
60860;DHT22;46694;54.382;9.708;2022-12-18T05:24:29;-3.70;99.90
60860;DHT22;46694;54.382;9.708;2022-12-18T05:27:08;-3.80;99.90
60860;DHT22;46694;54.382;9.708;2022-12-18T05:29:48;-3.80;99.90
60860;DHT22;46694;54.382;9.708;2022-12-18T05:32:27;-3.80;99.90
60860;DHT22;46694;54.382;9.708;2022-12-18T05:35:09;-3.80;99.90
60860;DHT22;46694;54.382;9.708;2022-12-18T05:37:49;-3.90;99.90
60860;DHT22;46694;54.382;9.708;2022-12-18T05:40:28;-3.90;99.90
60860;DHT22;46694;54.382;9.708;2022-12-18T05:43:08;-3.90;99.90
60860;DHT22;46694;54.382;9.708;2022-12-18T05:45:48;-3.90;99.90
60860;DHT22;46694;54.382;9.708;2022-12-18T05:48:28;-3.90;99.90
60860;DHT22;46694;54.382;9.708;2022-12-18T05:51:10;-3.90;99.90
60860;DHT22;46694;54.382;9.708;2022-12-18T05:53:55;-3.90;99.90
60860;DHT22;46694;54.382;9.708;2022-12-18T05:56:34;-3.90;99.90
60860;DHT22;46694;54.382;9.708;2022-12-18T05:59:13;-3.90;99.90
60860;DHT22;46694;54.382;9.708;2022-12-18T06:01:53;-3.90;99.90
60860;DHT22;46694;54.382;9.708;2022-12-18T06:04:33;-3.90;99.90
60860;DHT22;46694;54.382;9.708;2022-12-18T06:07:12;-3.90;99.90
60860;DHT22;46694;54.382;9.708;2022-12-18T06:09:52;-3.90;99.90
60860;DHT22;46694;54.382;9.708;2022-12-18T06:12:32;-3.90;99.90
60860;DHT22;46694;54.382;9.708;2022-12-18T06:15:12;-4.00;99.90
60860;DHT22;46694;54.382;9.708;2022-12-18T06:17:52;-4.00;99.90
60860;DHT22;46694;54.382;9.708;2022-12-18T06:20:31;-4.00;99.90
60860;DHT22;46694;54.382;9.708;2022-12-18T06:23:11;-4.00;99.90
60860;DHT22;46694;54.382;9.708;2022-12-18T06:25:50;-4.00;99.90
60860;DHT22;46694;54.382;9.708;2022-12-18T06:28:30;-4.10;99.90
60860;DHT22;46694;54.382;9.708;2022-12-18T06:31:10;-4.10;99.90
60860;DHT22;46694;54.382;9.708;2022-12-18T06:33:49;-4.10;99.90
60860;DHT22;46694;54.382;9.708;2022-12-18T06:36:31;-4.10;99.90
60860;DHT22;46694;54.382;9.708;2022-12-18T06:39:11;-4.10;99.90
60860;DHT22;46694;54.382;9.708;2022-12-18T06:41:50;-4.10;99.90
60860;DHT22;46694;54.382;9.708;2022-12-18T06:44:30;-4.10;99.90
60860;DHT22;46694;54.382;9.708;2022-12-18T06:47:09;-4.10;99.90
60860;DHT22;46694;54.382;9.708;2022-12-18T06:49:49;-4.10;99.90
60860;DHT22;46694;54.382;9.708;2022-12-18T06:52:31;-4.10;99.90
60860;DHT22;46694;54.382;9.708;2022-12-18T06:55:11;-4.10;99.90
60860;DHT22;46694;54.382;9.708;2022-12-18T06:57:51;-4.10;99.90
60860;DHT22;46694;54.382;9.708;2022-12-18T07:00:30;-4.10;99.90
60860;DHT22;46694;54.382;9.708;2022-12-18T07:03:10;-4.10;99.90
60860;DHT22;46694;54.382;9.708;2022-12-18T07:05:50;-4.10;99.90
60860;DHT22;46694;54.382;9.708;2022-12-18T07:08:30;-4.10;99.90
60860;DHT22;46694;54.382;9.708;2022-12-18T07:11:10;-4.20;99.90
60860;DHT22;46694;54.382;9.708;2022-12-18T07:13:50;-4.20;99.90
60860;DHT22;46694;54.382;9.708;2022-12-18T07:16:31;-4.10;99.90
60860;DHT22;46694;54.382;9.708;2022-12-18T07:19:11;-4.10;99.90
60860;DHT22;46694;54.382;9.708;2022-12-18T07:21:50;-4.10;99.90
60860;DHT22;46694;54.382;9.708;2022-12-18T07:24:32;-4.10;99.90
60860;DHT22;46694;54.382;9.708;2022-12-18T07:27:13;-4.10;99.90
60860;DHT22;46694;54.382;9.708;2022-12-18T07:29:52;-4.10;99.90
60860;DHT22;46694;54.382;9.708;2022-12-18T07:32:32;-4.10;99.90
60860;DHT22;46694;54.382;9.708;2022-12-18T07:35:12;-4.10;99.90
60860;DHT22;46694;54.382;9.708;2022-12-18T07:37:51;-4.00;99.90
60860;DHT22;46694;54.382;9.708;2022-12-18T07:40:31;-4.00;99.90
60860;DHT22;46694;54.382;9.708;2022-12-18T07:43:10;-4.10;99.90
60860;DHT22;46694;54.382;9.708;2022-12-18T07:45:50;-4.10;99.90
60860;DHT22;46694;54.382;9.708;2022-12-18T07:48:29;-4.10;99.90
60860;DHT22;46694;54.382;9.708;2022-12-18T07:51:09;-4.10;99.90
60860;DHT22;46694;54.382;9.708;2022-12-18T07:53:49;-4.20;99.90
60860;DHT22;46694;54.382;9.708;2022-12-18T07:56:29;-4.20;99.90
60860;DHT22;46694;54.382;9.708;2022-12-18T07:59:08;-4.20;99.90
60860;DHT22;46694;54.382;9.708;2022-12-18T08:01:48;-4.20;99.90
60860;DHT22;46694;54.382;9.708;2022-12-18T08:04:27;-4.20;99.90
60860;DHT22;46694;54.382;9.708;2022-12-18T08:07:07;-4.20;99.90
60860;DHT22;46694;54.382;9.708;2022-12-18T08:09:48;-4.20;99.90
60860;DHT22;46694;54.382;9.708;2022-12-18T08:12:28;-4.20;99.90
60860;DHT22;46694;54.382;9.708;2022-12-18T08:15:08;-4.20;99.90
60860;DHT22;46694;54.382;9.708;2022-12-18T08:17:48;-4.20;99.90
60860;DHT22;46694;54.382;9.708;2022-12-18T08:20:27;-4.10;99.90
60860;DHT22;46694;54.382;9.708;2022-12-18T08:23:07;-4.10;99.90
60860;DHT22;46694;54.382;9.708;2022-12-18T08:25:47;-4.00;99.90
60860;DHT22;46694;54.382;9.708;2022-12-18T08:28:27;-3.90;99.90
60860;DHT22;46694;54.382;9.708;2022-12-18T08:31:07;-3.90;99.90
60860;DHT22;46694;54.382;9.708;2022-12-18T08:33:51;-3.80;99.90
60860;DHT22;46694;54.382;9.708;2022-12-18T08:36:31;-3.90;99.90
60860;DHT22;46694;54.382;9.708;2022-12-18T08:39:11;-3.90;99.90
60860;DHT22;46694;54.382;9.708;2022-12-18T08:41:50;-3.90;99.90
60860;DHT22;46694;54.382;9.708;2022-12-18T08:44:48;-3.90;99.90
60860;DHT22;46694;54.382;9.708;2022-12-18T08:47:28;-3.90;99.90
60860;DHT22;46694;54.382;9.708;2022-12-18T08:50:08;-4.00;99.90
60860;DHT22;46694;54.382;9.708;2022-12-18T08:52:48;-4.00;99.90
60860;DHT22;46694;54.382;9.708;2022-12-18T08:55:28;-4.10;99.90
60860;DHT22;46694;54.382;9.708;2022-12-18T08:58:07;-4.10;99.90
60860;DHT22;46694;54.382;9.708;2022-12-18T09:00:47;-4.10;99.90
60860;DHT22;46694;54.382;9.708;2022-12-18T09:03:26;-4.10;99.90
60860;DHT22;46694;54.382;9.708;2022-12-18T09:06:06;-4.10;99.90
60860;DHT22;46694;54.382;9.708;2022-12-18T09:08:46;-4.10;99.90
60860;DHT22;46694;54.382;9.708;2022-12-18T09:11:28;-4.10;99.90
60860;DHT22;46694;54.382;9.708;2022-12-18T09:14:09;-4.00;99.90
60860;DHT22;46694;54.382;9.708;2022-12-18T09:16:49;-3.90;99.90
60860;DHT22;46694;54.382;9.708;2022-12-18T09:19:28;-3.80;99.90
60860;DHT22;46694;54.382;9.708;2022-12-18T09:22:07;-3.70;99.90
60860;DHT22;46694;54.382;9.708;2022-12-18T09:24:48;-3.60;99.90
60860;DHT22;46694;54.382;9.708;2022-12-18T09:27:28;-3.50;99.90
60860;DHT22;46694;54.382;9.708;2022-12-18T09:30:08;-3.40;99.90
60860;DHT22;46694;54.382;9.708;2022-12-18T09:32:48;-3.30;99.90
60860;DHT22;46694;54.382;9.708;2022-12-18T09:35:27;-3.20;99.90
60860;DHT22;46694;54.382;9.708;2022-12-18T09:38:08;-3.10;99.90
60860;DHT22;46694;54.382;9.708;2022-12-18T09:40:57;-3.10;99.90
60860;DHT22;46694;54.382;9.708;2022-12-18T09:43:49;-3.20;99.90
60860;DHT22;46694;54.382;9.708;2022-12-18T09:46:33;-3.20;99.90
60860;DHT22;46694;54.382;9.708;2022-12-18T09:49:18;-3.30;99.90
60860;DHT22;46694;54.382;9.708;2022-12-18T09:52:09;-3.30;99.90
60860;DHT22;46694;54.382;9.708;2022-12-18T09:54:56;-3.20;99.90
60860;DHT22;46694;54.382;9.708;2022-12-18T09:57:45;-3.00;99.90
60860;DHT22;46694;54.382;9.708;2022-12-18T10:00:28;-2.90;99.90
60860;DHT22;46694;54.382;9.708;2022-12-18T10:03:13;-3.00;99.90
60860;DHT22;46694;54.382;9.708;2022-12-18T10:09:01;-3.30;99.90
60860;DHT22;46694;54.382;9.708;2022-12-18T10:21:37;-2.90;99.90
60860;DHT22;46694;54.382;9.708;2022-12-18T10:27:29;-2.50;99.90
60860;DHT22;46694;54.382;9.708;2022-12-18T10:30:15;-2.30;99.90
60860;DHT22;46694;54.382;9.708;2022-12-18T10:33:01;-2.20;99.90
60860;DHT22;46694;54.382;9.708;2022-12-18T10:35:42;-2.10;99.90
60860;DHT22;46694;54.382;9.708;2022-12-18T10:38:28;-2.00;99.90
60860;DHT22;46694;54.382;9.708;2022-12-18T10:44:22;-1.90;99.90
60860;DHT22;46694;54.382;9.708;2022-12-18T10:47:05;-1.90;99.90
60860;DHT22;46694;54.382;9.708;2022-12-18T10:49:51;-1.90;99.90
60860;DHT22;46694;54.382;9.708;2022-12-18T10:52:34;-1.90;99.90
60860;DHT22;46694;54.382;9.708;2022-12-18T10:55:16;-1.90;99.90
60860;DHT22;46694;54.382;9.708;2022-12-18T10:58:15;-1.90;99.90
60860;DHT22;46694;54.382;9.708;2022-12-18T11:07:02;-2.10;99.90
60860;DHT22;46694;54.382;9.708;2022-12-18T11:09:59;-2.10;99.90
60860;DHT22;46694;54.382;9.708;2022-12-18T11:12:40;-2.20;99.90
60860;DHT22;46694;54.382;9.708;2022-12-18T11:15:23;-2.20;99.90
60860;DHT22;46694;54.382;9.708;2022-12-18T11:18:16;-2.10;99.90
60860;DHT22;46694;54.382;9.708;2022-12-18T11:23:52;-2.00;99.90
60860;DHT22;46694;54.382;9.708;2022-12-18T11:26:35;-2.00;99.90
60860;DHT22;46694;54.382;9.708;2022-12-18T11:29:22;-2.00;99.90
60860;DHT22;46694;54.382;9.708;2022-12-18T11:38:37;-2.30;99.90
60860;DHT22;46694;54.382;9.708;2022-12-18T11:41:29;-2.40;99.90
60860;DHT22;46694;54.382;9.708;2022-12-18T11:44:53;-2.50;99.90
60860;DHT22;46694;54.382;9.708;2022-12-18T11:47:55;-2.60;99.90
60860;DHT22;46694;54.382;9.708;2022-12-18T11:53:33;-2.50;99.90
60860;DHT22;46694;54.382;9.708;2022-12-18T12:15:34;-2.40;99.90
60860;DHT22;46694;54.382;9.708;2022-12-18T12:27:34;-2.70;99.90
60860;DHT22;46694;54.382;9.708;2022-12-18T12:30:23;-2.60;99.90
60860;DHT22;46694;54.382;9.708;2022-12-18T12:33:36;-2.60;99.90
60860;DHT22;46694;54.382;9.708;2022-12-18T12:36:51;-2.70;99.90
60860;DHT22;46694;54.382;9.708;2022-12-18T12:39:39;-2.70;99.90
60860;DHT22;46694;54.382;9.708;2022-12-18T12:42:34;-2.80;99.90
60860;DHT22;46694;54.382;9.708;2022-12-18T12:49:11;-2.90;99.90
60860;DHT22;46694;54.382;9.708;2022-12-18T12:52:00;-2.90;99.90
60860;DHT22;46694;54.382;9.708;2022-12-18T12:54:43;-2.90;99.90
60860;DHT22;46694;54.382;9.708;2022-12-18T12:57:31;-2.90;99.90
60860;DHT22;46694;54.382;9.708;2022-12-18T13:00:16;-2.90;99.90
60860;DHT22;46694;54.382;9.708;2022-12-18T13:09:06;-3.00;99.90
60860;DHT22;46694;54.382;9.708;2022-12-18T13:11:47;-3.00;99.90
60860;DHT22;46694;54.382;9.708;2022-12-18T13:14:45;-3.00;99.90
60860;DHT22;46694;54.382;9.708;2022-12-18T13:17:29;-3.00;99.90
60860;DHT22;46694;54.382;9.708;2022-12-18T13:20:12;-3.00;99.90
60860;DHT22;46694;54.382;9.708;2022-12-18T13:22:55;-3.00;99.90
60860;DHT22;46694;54.382;9.708;2022-12-18T13:25:36;-3.00;99.90
60860;DHT22;46694;54.382;9.708;2022-12-18T13:34:28;-3.10;99.90
60860;DHT22;46694;54.382;9.708;2022-12-18T13:37:40;-2.80;99.90
60860;DHT22;46694;54.382;9.708;2022-12-18T13:49:03;-2.70;99.90
60860;DHT22;46694;54.382;9.708;2022-12-18T13:51:59;-2.60;99.90
60860;DHT22;46694;54.382;9.708;2022-12-18T13:54:40;-2.60;99.90
60860;DHT22;46694;54.382;9.708;2022-12-18T13:57:35;-2.50;99.90
60860;DHT22;46694;54.382;9.708;2022-12-18T14:03:17;-2.50;99.90
60860;DHT22;46694;54.382;9.708;2022-12-18T14:06:06;-2.50;99.90
60860;DHT22;46694;54.382;9.708;2022-12-18T14:08:46;-2.50;99.90
60860;DHT22;46694;54.382;9.708;2022-12-18T14:11:26;-2.50;99.90
60860;DHT22;46694;54.382;9.708;2022-12-18T14:14:07;-2.50;99.90
60860;DHT22;46694;54.382;9.708;2022-12-18T14:16:46;-2.50;99.90
60860;DHT22;46694;54.382;9.708;2022-12-18T14:19:26;-2.50;99.90
60860;DHT22;46694;54.382;9.708;2022-12-18T14:22:15;-2.50;99.90
60860;DHT22;46694;54.382;9.708;2022-12-18T14:30:49;-2.50;99.90
60860;DHT22;46694;54.382;9.708;2022-12-18T14:33:29;-2.50;99.90
60860;DHT22;46694;54.382;9.708;2022-12-18T14:36:16;-2.50;99.90
60860;DHT22;46694;54.382;9.708;2022-12-18T14:39:00;-2.50;99.90
60860;DHT22;46694;54.382;9.708;2022-12-18T14:41:39;-2.50;99.90
60860;DHT22;46694;54.382;9.708;2022-12-18T14:44:19;-2.60;99.90
60860;DHT22;46694;54.382;9.708;2022-12-18T14:47:00;-2.70;99.90
60860;DHT22;46694;54.382;9.708;2022-12-18T14:49:41;-2.70;99.90
60860;DHT22;46694;54.382;9.708;2022-12-18T14:52:29;-2.70;99.90
60860;DHT22;46694;54.382;9.708;2022-12-18T14:55:20;-2.80;99.90
60860;DHT22;46694;54.382;9.708;2022-12-18T14:58:00;-2.80;99.90
60860;DHT22;46694;54.382;9.708;2022-12-18T15:00:42;-2.80;99.90
60860;DHT22;46694;54.382;9.708;2022-12-18T15:03:22;-2.80;99.90
60860;DHT22;46694;54.382;9.708;2022-12-18T15:06:21;-2.80;99.90
60860;DHT22;46694;54.382;9.708;2022-12-18T15:09:23;-2.90;99.90
60860;DHT22;46694;54.382;9.708;2022-12-18T15:12:25;-2.90;99.90
60860;DHT22;46694;54.382;9.708;2022-12-18T15:18:17;-2.80;99.90
60860;DHT22;46694;54.382;9.708;2022-12-18T15:21:07;-2.80;99.90
60860;DHT22;46694;54.382;9.708;2022-12-18T15:23:50;-2.80;99.90
60860;DHT22;46694;54.382;9.708;2022-12-18T15:26:36;-2.90;99.90
60860;DHT22;46694;54.382;9.708;2022-12-18T15:29:22;-2.90;99.90
60860;DHT22;46694;54.382;9.708;2022-12-18T15:32:05;-2.90;99.90
60860;DHT22;46694;54.382;9.708;2022-12-18T15:38:00;-2.90;99.90
60860;DHT22;46694;54.382;9.708;2022-12-18T15:40:39;-2.90;99.90
60860;DHT22;46694;54.382;9.708;2022-12-18T15:43:23;-2.90;99.90
60860;DHT22;46694;54.382;9.708;2022-12-18T15:48:58;-3.00;99.90
60860;DHT22;46694;54.382;9.708;2022-12-18T15:51:38;-3.00;99.90
60860;DHT22;46694;54.382;9.708;2022-12-18T15:54:17;-3.00;99.90
60860;DHT22;46694;54.382;9.708;2022-12-18T15:57:17;-3.00;99.90
60860;DHT22;46694;54.382;9.708;2022-12-18T16:00:03;-3.00;99.90
60860;DHT22;46694;54.382;9.708;2022-12-18T16:02:43;-3.00;99.90
60860;DHT22;46694;54.382;9.708;2022-12-18T16:05:23;-3.00;99.90
60860;DHT22;46694;54.382;9.708;2022-12-18T16:08:03;-3.00;99.90
60860;DHT22;46694;54.382;9.708;2022-12-18T16:10:43;-3.10;99.90
60860;DHT22;46694;54.382;9.708;2022-12-18T16:13:22;-3.10;99.90
60860;DHT22;46694;54.382;9.708;2022-12-18T16:16:02;-3.20;99.90
60860;DHT22;46694;54.382;9.708;2022-12-18T16:18:42;-3.20;99.90
60860;DHT22;46694;54.382;9.708;2022-12-18T16:21:21;-3.20;99.90
60860;DHT22;46694;54.382;9.708;2022-12-18T16:24:01;-3.20;99.90
60860;DHT22;46694;54.382;9.708;2022-12-18T16:26:40;-3.20;99.90
60860;DHT22;46694;54.382;9.708;2022-12-18T16:29:21;-3.30;99.90
60860;DHT22;46694;54.382;9.708;2022-12-18T16:32:03;-3.30;99.90
60860;DHT22;46694;54.382;9.708;2022-12-18T16:34:43;-3.30;99.90
60860;DHT22;46694;54.382;9.708;2022-12-18T16:37:23;-3.30;99.90
60860;DHT22;46694;54.382;9.708;2022-12-18T16:40:03;-3.30;99.90
60860;DHT22;46694;54.382;9.708;2022-12-18T16:42:44;-3.30;99.90
60860;DHT22;46694;54.382;9.708;2022-12-18T16:45:24;-3.30;99.90
60860;DHT22;46694;54.382;9.708;2022-12-18T16:48:04;-3.30;99.90
60860;DHT22;46694;54.382;9.708;2022-12-18T16:50:44;-3.30;99.90
60860;DHT22;46694;54.382;9.708;2022-12-18T16:53:23;-3.40;99.90
60860;DHT22;46694;54.382;9.708;2022-12-18T16:56:03;-3.40;99.90
60860;DHT22;46694;54.382;9.708;2022-12-18T16:59:17;-3.40;99.90
60860;DHT22;46694;54.382;9.708;2022-12-18T17:01:57;-3.40;99.90
60860;DHT22;46694;54.382;9.708;2022-12-18T17:04:36;-3.40;99.90
60860;DHT22;46694;54.382;9.708;2022-12-18T17:07:16;-3.40;99.90
60860;DHT22;46694;54.382;9.708;2022-12-18T17:09:56;-3.40;99.90
60860;DHT22;46694;54.382;9.708;2022-12-18T17:12:35;-3.40;99.90
60860;DHT22;46694;54.382;9.708;2022-12-18T17:15:16;-3.40;99.90
60860;DHT22;46694;54.382;9.708;2022-12-18T17:17:56;-3.40;99.90
60860;DHT22;46694;54.382;9.708;2022-12-18T17:20:35;-3.40;99.90
60860;DHT22;46694;54.382;9.708;2022-12-18T17:23:15;-3.40;99.90
60860;DHT22;46694;54.382;9.708;2022-12-18T17:25:56;-3.40;99.90
60860;DHT22;46694;54.382;9.708;2022-12-18T17:28:37;-3.40;99.90
60860;DHT22;46694;54.382;9.708;2022-12-18T17:31:19;-3.40;99.90
60860;DHT22;46694;54.382;9.708;2022-12-18T17:34:03;-3.50;99.90
60860;DHT22;46694;54.382;9.708;2022-12-18T17:36:43;-3.50;99.90
60860;DHT22;46694;54.382;9.708;2022-12-18T17:39:22;-3.50;99.90
60860;DHT22;46694;54.382;9.708;2022-12-18T17:42:02;-3.50;99.90
60860;DHT22;46694;54.382;9.708;2022-12-18T17:44:42;-3.50;99.90
60860;DHT22;46694;54.382;9.708;2022-12-18T17:47:22;-3.50;99.90
60860;DHT22;46694;54.382;9.708;2022-12-18T17:50:02;-3.50;99.90
60860;DHT22;46694;54.382;9.708;2022-12-18T17:52:43;-3.50;99.90
60860;DHT22;46694;54.382;9.708;2022-12-18T17:55:22;-3.50;99.90
60860;DHT22;46694;54.382;9.708;2022-12-18T17:58:02;-3.40;99.90
60860;DHT22;46694;54.382;9.708;2022-12-18T18:00:41;-3.40;99.90
60860;DHT22;46694;54.382;9.708;2022-12-18T18:03:21;-3.40;99.90
60860;DHT22;46694;54.382;9.708;2022-12-18T18:06:01;-3.40;99.90
60860;DHT22;46694;54.382;9.708;2022-12-18T18:08:40;-3.40;99.90
60860;DHT22;46694;54.382;9.708;2022-12-18T18:11:22;-3.40;99.90
60860;DHT22;46694;54.382;9.708;2022-12-18T18:14:20;-3.30;99.90
60860;DHT22;46694;54.382;9.708;2022-12-18T18:17:00;-3.30;99.90
60860;DHT22;46694;54.382;9.708;2022-12-18T18:19:40;-3.30;99.90
60860;DHT22;46694;54.382;9.708;2022-12-18T18:22:20;-3.30;99.90
60860;DHT22;46694;54.382;9.708;2022-12-18T18:24:59;-3.30;99.90
60860;DHT22;46694;54.382;9.708;2022-12-18T18:27:40;-3.30;99.90
60860;DHT22;46694;54.382;9.708;2022-12-18T18:30:19;-3.30;99.90
60860;DHT22;46694;54.382;9.708;2022-12-18T18:32:59;-3.20;99.90
60860;DHT22;46694;54.382;9.708;2022-12-18T18:35:42;-3.30;99.90
60860;DHT22;46694;54.382;9.708;2022-12-18T18:38:22;-3.20;99.90
60860;DHT22;46694;54.382;9.708;2022-12-18T18:41:03;-3.20;99.90
60860;DHT22;46694;54.382;9.708;2022-12-18T18:43:43;-3.20;99.90
60860;DHT22;46694;54.382;9.708;2022-12-18T18:46:23;-3.20;99.90
60860;DHT22;46694;54.382;9.708;2022-12-18T18:49:03;-3.20;99.90
60860;DHT22;46694;54.382;9.708;2022-12-18T18:51:43;-3.10;99.90
60860;DHT22;46694;54.382;9.708;2022-12-18T18:54:24;-3.10;99.90
60860;DHT22;46694;54.382;9.708;2022-12-18T18:57:04;-3.10;99.90
60860;DHT22;46694;54.382;9.708;2022-12-18T18:59:45;-3.10;99.90
60860;DHT22;46694;54.382;9.708;2022-12-18T19:02:26;-3.10;99.90
60860;DHT22;46694;54.382;9.708;2022-12-18T19:05:05;-3.10;99.90
60860;DHT22;46694;54.382;9.708;2022-12-18T19:07:45;-3.10;99.90
60860;DHT22;46694;54.382;9.708;2022-12-18T19:10:25;-3.10;99.90
60860;DHT22;46694;54.382;9.708;2022-12-18T19:13:05;-3.10;99.90
60860;DHT22;46694;54.382;9.708;2022-12-18T19:16:07;-3.10;99.90
60860;DHT22;46694;54.382;9.708;2022-12-18T19:18:48;-3.00;99.90
60860;DHT22;46694;54.382;9.708;2022-12-18T19:21:27;-3.00;99.90
60860;DHT22;46694;54.382;9.708;2022-12-18T19:24:08;-3.00;99.90